sensor_id;sensor_type;location;lat;lon;timestamp;temperature;humidity
21312;DHT22;18076;52.154;10.570;2024-01-07T00:01:12;0.40;99.90
21312;DHT22;18076;52.154;10.570;2024-01-07T00:03:40;0.40;99.90
21312;DHT22;18076;52.154;10.570;2024-01-07T00:06:05;0.40;99.90
21312;DHT22;18076;52.154;10.570;2024-01-07T00:08:31;0.30;99.90
21312;DHT22;18076;52.154;10.570;2024-01-07T00:10:56;0.20;99.90
21312;DHT22;18076;52.154;10.570;2024-01-07T00:13:22;0.20;99.90
21312;DHT22;18076;52.154;10.570;2024-01-07T00:15:47;0.20;99.90
21312;DHT22;18076;52.154;10.570;2024-01-07T00:18:13;0.20;99.90
21312;DHT22;18076;52.154;10.570;2024-01-07T00:20:39;0.20;99.90
21312;DHT22;18076;52.154;10.570;2024-01-07T00:23:04;0.20;99.90
21312;DHT22;18076;52.154;10.570;2024-01-07T00:25:30;0.20;99.90
21312;DHT22;18076;52.154;10.570;2024-01-07T00:27:55;0.20;99.90
21312;DHT22;18076;52.154;10.570;2024-01-07T00:30:21;0.30;99.90
21312;DHT22;18076;52.154;10.570;2024-01-07T00:32:46;0.20;99.90
21312;DHT22;18076;52.154;10.570;2024-01-07T00:35:12;0.20;99.90
21312;DHT22;18076;52.154;10.570;2024-01-07T00:37:38;0.20;99.90
21312;DHT22;18076;52.154;10.570;2024-01-07T00:40:04;0.20;99.90
21312;DHT22;18076;52.154;10.570;2024-01-07T00:42:30;0.20;99.90
21312;DHT22;18076;52.154;10.570;2024-01-07T00:44:55;0.20;99.90
21312;DHT22;18076;52.154;10.570;2024-01-07T00:47:21;0.20;99.90
21312;DHT22;18076;52.154;10.570;2024-01-07T00:49:46;0.20;99.90
21312;DHT22;18076;52.154;10.570;2024-01-07T00:52:12;0.20;99.90
21312;DHT22;18076;52.154;10.570;2024-01-07T00:54:37;0.20;99.90
21312;DHT22;18076;52.154;10.570;2024-01-07T00:57:03;0.20;99.90
21312;DHT22;18076;52.154;10.570;2024-01-07T00:59:29;0.20;99.90
21312;DHT22;18076;52.154;10.570;2024-01-07T01:01:57;0.20;99.90
21312;DHT22;18076;52.154;10.570;2024-01-07T01:04:23;0.10;99.90
21312;DHT22;18076;52.154;10.570;2024-01-07T01:06:48;0.10;99.90
21312;DHT22;18076;52.154;10.570;2024-01-07T01:09:14;0.10;99.90
21312;DHT22;18076;52.154;10.570;2024-01-07T01:11:39;0.00;99.90
21312;DHT22;18076;52.154;10.570;2024-01-07T01:14:05;0.00;99.90
21312;DHT22;18076;52.154;10.570;2024-01-07T01:16:30;0.00;99.90
21312;DHT22;18076;52.154;10.570;2024-01-07T01:18:56;0.00;99.90
21312;DHT22;18076;52.154;10.570;2024-01-07T01:21:21;0.10;99.90
21312;DHT22;18076;52.154;10.570;2024-01-07T01:23:48;0.10;99.90
21312;DHT22;18076;52.154;10.570;2024-01-07T01:26:14;0.10;99.90
21312;DHT22;18076;52.154;10.570;2024-01-07T01:28:40;0.00;99.90
21312;DHT22;18076;52.154;10.570;2024-01-07T01:31:05;0.00;99.90
21312;DHT22;18076;52.154;10.570;2024-01-07T01:33:31;0.00;99.90
21312;DHT22;18076;52.154;10.570;2024-01-07T01:35:56;0.00;99.90
21312;DHT22;18076;52.154;10.570;2024-01-07T01:38:22;0.00;99.90
21312;DHT22;18076;52.154;10.570;2024-01-07T01:40:51;0.10;99.90
21312;DHT22;18076;52.154;10.570;2024-01-07T01:43:24;0.00;99.90
21312;DHT22;18076;52.154;10.570;2024-01-07T01:45:49;0.00;99.90
21312;DHT22;18076;52.154;10.570;2024-01-07T01:48:15;-0.10;99.90
21312;DHT22;18076;52.154;10.570;2024-01-07T01:50:40;-0.10;99.90
21312;DHT22;18076;52.154;10.570;2024-01-07T01:53:06;-0.10;99.90
21312;DHT22;18076;52.154;10.570;2024-01-07T01:55:31;-0.10;99.90
21312;DHT22;18076;52.154;10.570;2024-01-07T01:57:57;-0.20;99.90
21312;DHT22;18076;52.154;10.570;2024-01-07T02:00:25;-0.20;99.90
21312;DHT22;18076;52.154;10.570;2024-01-07T02:02:50;-0.20;99.90
21312;DHT22;18076;52.154;10.570;2024-01-07T02:05:16;-0.30;99.90
21312;DHT22;18076;52.154;10.570;2024-01-07T02:07:41;-0.20;99.90
21312;DHT22;18076;52.154;10.570;2024-01-07T02:10:07;-0.20;99.90
21312;DHT22;18076;52.154;10.570;2024-01-07T02:12:33;-0.20;99.90
21312;DHT22;18076;52.154;10.570;2024-01-07T02:14:58;-0.20;99.90
21312;DHT22;18076;52.154;10.570;2024-01-07T02:17:24;-0.20;99.90
21312;DHT22;18076;52.154;10.570;2024-01-07T02:19:49;-0.20;99.90
21312;DHT22;18076;52.154;10.570;2024-01-07T02:22:15;-0.20;99.90
21312;DHT22;18076;52.154;10.570;2024-01-07T02:24:40;-0.20;99.90
21312;DHT22;18076;52.154;10.570;2024-01-07T02:27:06;-0.30;99.90
21312;DHT22;18076;52.154;10.570;2024-01-07T02:29:31;-0.30;99.90
21312;DHT22;18076;52.154;10.570;2024-01-07T02:32:05;-0.30;99.90
21312;DHT22;18076;52.154;10.570;2024-01-07T02:34:31;-0.20;99.90
21312;DHT22;18076;52.154;10.570;2024-01-07T02:36:56;-0.20;99.90
21312;DHT22;18076;52.154;10.570;2024-01-07T02:39:22;-0.30;99.90
21312;DHT22;18076;52.154;10.570;2024-01-07T02:41:48;-0.30;99.90
21312;DHT22;18076;52.154;10.570;2024-01-07T02:44:14;-0.40;99.90
21312;DHT22;18076;52.154;10.570;2024-01-07T02:46:39;-0.40;99.90
21312;DHT22;18076;52.154;10.570;2024-01-07T02:49:05;-0.40;99.90
21312;DHT22;18076;52.154;10.570;2024-01-07T02:51:30;-0.40;99.90
21312;DHT22;18076;52.154;10.570;2024-01-07T02:53:56;-0.50;99.90
21312;DHT22;18076;52.154;10.570;2024-01-07T02:56:21;-0.40;99.90
21312;DHT22;18076;52.154;10.570;2024-01-07T02:58:47;-0.40;99.90
21312;DHT22;18076;52.154;10.570;2024-01-07T03:01:12;-0.40;99.90
21312;DHT22;18076;52.154;10.570;2024-01-07T03:03:38;-0.40;99.90
21312;DHT22;18076;52.154;10.570;2024-01-07T03:06:04;-0.50;99.90
21312;DHT22;18076;52.154;10.570;2024-01-07T03:08:29;-0.50;99.90
21312;DHT22;18076;52.154;10.570;2024-01-07T03:10:55;-0.50;99.90
21312;DHT22;18076;52.154;10.570;2024-01-07T03:13:21;-0.60;99.90
21312;DHT22;18076;52.154;10.570;2024-01-07T03:15:46;-0.60;99.90
21312;DHT22;18076;52.154;10.570;2024-01-07T03:18:12;-0.70;99.90
21312;DHT22;18076;52.154;10.570;2024-01-07T03:20:37;-0.70;99.90
21312;DHT22;18076;52.154;10.570;2024-01-07T03:23:03;-0.70;99.90
21312;DHT22;18076;52.154;10.570;2024-01-07T03:25:28;-0.70;99.90
21312;DHT22;18076;52.154;10.570;2024-01-07T03:27:54;-0.70;99.90
21312;DHT22;18076;52.154;10.570;2024-01-07T03:30:19;-0.70;99.90
21312;DHT22;18076;52.154;10.570;2024-01-07T03:32:45;-0.70;99.90
21312;DHT22;18076;52.154;10.570;2024-01-07T03:35:10;-0.60;99.90
21312;DHT22;18076;52.154;10.570;2024-01-07T03:37:36;-0.60;99.90
21312;DHT22;18076;52.154;10.570;2024-01-07T03:40:01;-0.60;99.90
21312;DHT22;18076;52.154;10.570;2024-01-07T03:42:27;-0.60;99.90
21312;DHT22;18076;52.154;10.570;2024-01-07T03:44:53;-0.50;99.90
21312;DHT22;18076;52.154;10.570;2024-01-07T03:47:18;-0.60;99.90
21312;DHT22;18076;52.154;10.570;2024-01-07T03:49:44;-0.50;99.90
21312;DHT22;18076;52.154;10.570;2024-01-07T03:52:09;-0.60;99.90
21312;DHT22;18076;52.154;10.570;2024-01-07T03:54:35;-0.60;99.90
21312;DHT22;18076;52.154;10.570;2024-01-07T03:57:00;-0.60;99.90
21312;DHT22;18076;52.154;10.570;2024-01-07T03:59:26;-0.60;99.90
21312;DHT22;18076;52.154;10.570;2024-01-07T04:01:56;-0.60;99.90
21312;DHT22;18076;52.154;10.570;2024-01-07T04:04:22;-0.70;99.90
21312;DHT22;18076;52.154;10.570;2024-01-07T04:06:47;-0.60;99.90
21312;DHT22;18076;52.154;10.570;2024-01-07T04:09:13;-0.60;99.90
21312;DHT22;18076;52.154;10.570;2024-01-07T04:11:39;-0.60;99.90
21312;DHT22;18076;52.154;10.570;2024-01-07T04:14:05;-0.60;99.90
21312;DHT22;18076;52.154;10.570;2024-01-07T04:16:30;-0.60;99.90
21312;DHT22;18076;52.154;10.570;2024-01-07T04:18:56;-0.60;99.90
21312;DHT22;18076;52.154;10.570;2024-01-07T04:21:21;-0.60;99.90
21312;DHT22;18076;52.154;10.570;2024-01-07T04:23:47;-0.60;99.90
21312;DHT22;18076;52.154;10.570;2024-01-07T04:26:12;-0.60;99.90
21312;DHT22;18076;52.154;10.570;2024-01-07T04:28:40;-0.60;99.90
21312;DHT22;18076;52.154;10.570;2024-01-07T04:31:06;-0.60;99.90
21312;DHT22;18076;52.154;10.570;2024-01-07T04:33:31;-0.60;99.90
21312;DHT22;18076;52.154;10.570;2024-01-07T04:35:57;-0.60;99.90
21312;DHT22;18076;52.154;10.570;2024-01-07T04:38:23;-0.60;99.90
21312;DHT22;18076;52.154;10.570;2024-01-07T04:40:50;-0.70;99.90
21312;DHT22;18076;52.154;10.570;2024-01-07T04:43:15;-0.70;99.90
21312;DHT22;18076;52.154;10.570;2024-01-07T04:45:41;-0.70;99.90
21312;DHT22;18076;52.154;10.570;2024-01-07T04:48:06;-0.70;99.90
21312;DHT22;18076;52.154;10.570;2024-01-07T04:50:32;-0.70;99.90
21312;DHT22;18076;52.154;10.570;2024-01-07T04:52:57;-0.70;99.90
21312;DHT22;18076;52.154;10.570;2024-01-07T04:55:23;-0.70;99.90
21312;DHT22;18076;52.154;10.570;2024-01-07T04:57:48;-0.70;99.90
21312;DHT22;18076;52.154;10.570;2024-01-07T05:00:14;-0.80;99.90
21312;DHT22;18076;52.154;10.570;2024-01-07T05:02:40;-0.80;99.90
21312;DHT22;18076;52.154;10.570;2024-01-07T05:05:07;-0.80;99.90
21312;DHT22;18076;52.154;10.570;2024-01-07T05:07:32;-0.80;99.90
21312;DHT22;18076;52.154;10.570;2024-01-07T05:09:58;-0.80;99.90
21312;DHT22;18076;52.154;10.570;2024-01-07T05:12:23;-0.80;99.90
21312;DHT22;18076;52.154;10.570;2024-01-07T05:14:51;-0.80;99.90
21312;DHT22;18076;52.154;10.570;2024-01-07T05:17:16;-0.80;99.90
21312;DHT22;18076;52.154;10.570;2024-01-07T05:19:42;-0.80;99.90
21312;DHT22;18076;52.154;10.570;2024-01-07T05:22:08;-0.80;99.90
21312;DHT22;18076;52.154;10.570;2024-01-07T05:24:33;-0.90;99.90
21312;DHT22;18076;52.154;10.570;2024-01-07T05:26:59;-0.80;99.90
21312;DHT22;18076;52.154;10.570;2024-01-07T05:29:25;-0.80;99.90
21312;DHT22;18076;52.154;10.570;2024-01-07T05:31:51;-0.80;99.90
21312;DHT22;18076;52.154;10.570;2024-01-07T05:34:16;-0.80;99.90
21312;DHT22;18076;52.154;10.570;2024-01-07T05:36:42;-0.90;99.90
21312;DHT22;18076;52.154;10.570;2024-01-07T05:39:07;-0.90;99.90
21312;DHT22;18076;52.154;10.570;2024-01-07T05:41:33;-1.00;99.90
21312;DHT22;18076;52.154;10.570;2024-01-07T05:43:58;-0.90;99.90
21312;DHT22;18076;52.154;10.570;2024-01-07T05:46:24;-1.00;99.90
21312;DHT22;18076;52.154;10.570;2024-01-07T05:48:49;-1.00;99.90
21312;DHT22;18076;52.154;10.570;2024-01-07T05:51:16;-1.00;99.90
21312;DHT22;18076;52.154;10.570;2024-01-07T05:53:42;-1.00;99.90
21312;DHT22;18076;52.154;10.570;2024-01-07T05:56:08;-1.00;99.90
21312;DHT22;18076;52.154;10.570;2024-01-07T05:58:34;-1.00;99.90
21312;DHT22;18076;52.154;10.570;2024-01-07T06:00:59;-1.00;99.90
21312;DHT22;18076;52.154;10.570;2024-01-07T06:03:25;-1.00;99.90
21312;DHT22;18076;52.154;10.570;2024-01-07T06:05:51;-1.00;99.90
21312;DHT22;18076;52.154;10.570;2024-01-07T06:08:17;-1.00;99.90
21312;DHT22;18076;52.154;10.570;2024-01-07T06:10:42;-1.10;99.90
21312;DHT22;18076;52.154;10.570;2024-01-07T06:13:08;-1.10;99.90
21312;DHT22;18076;52.154;10.570;2024-01-07T06:15:33;-1.20;99.90
21312;DHT22;18076;52.154;10.570;2024-01-07T06:17:59;-1.30;99.90
21312;DHT22;18076;52.154;10.570;2024-01-07T06:20:24;-1.20;99.90
21312;DHT22;18076;52.154;10.570;2024-01-07T06:22:50;-1.30;99.90
21312;DHT22;18076;52.154;10.570;2024-01-07T06:25:16;-1.40;99.90
21312;DHT22;18076;52.154;10.570;2024-01-07T06:27:42;-1.40;99.90
21312;DHT22;18076;52.154;10.570;2024-01-07T06:30:07;-1.40;99.90
21312;DHT22;18076;52.154;10.570;2024-01-07T06:32:33;-1.40;99.90
21312;DHT22;18076;52.154;10.570;2024-01-07T06:34:59;-1.40;99.90
21312;DHT22;18076;52.154;10.570;2024-01-07T06:37:25;-1.50;99.90
21312;DHT22;18076;52.154;10.570;2024-01-07T06:39:51;-1.40;99.90
21312;DHT22;18076;52.154;10.570;2024-01-07T06:42:16;-1.50;99.90
21312;DHT22;18076;52.154;10.570;2024-01-07T06:44:42;-1.50;99.90
21312;DHT22;18076;52.154;10.570;2024-01-07T06:47:07;-1.60;99.90
21312;DHT22;18076;52.154;10.570;2024-01-07T06:49:33;-1.60;99.90
21312;DHT22;18076;52.154;10.570;2024-01-07T06:51:59;-1.60;99.90
21312;DHT22;18076;52.154;10.570;2024-01-07T06:54:24;-1.60;99.90
21312;DHT22;18076;52.154;10.570;2024-01-07T06:56:50;-1.60;99.90
21312;DHT22;18076;52.154;10.570;2024-01-07T06:59:15;-1.60;99.90
21312;DHT22;18076;52.154;10.570;2024-01-07T07:01:41;-1.60;99.90
21312;DHT22;18076;52.154;10.570;2024-01-07T07:04:06;-1.60;99.90
21312;DHT22;18076;52.154;10.570;2024-01-07T07:06:32;-1.60;99.90
21312;DHT22;18076;52.154;10.570;2024-01-07T07:08:57;-1.70;99.90
21312;DHT22;18076;52.154;10.570;2024-01-07T07:11:23;-1.70;99.90
21312;DHT22;18076;52.154;10.570;2024-01-07T07:13:48;-1.70;99.90
21312;DHT22;18076;52.154;10.570;2024-01-07T07:16:14;-1.70;99.90
21312;DHT22;18076;52.154;10.570;2024-01-07T07:18:39;-1.70;99.90
21312;DHT22;18076;52.154;10.570;2024-01-07T07:21:05;-1.60;99.90
21312;DHT22;18076;52.154;10.570;2024-01-07T07:23:30;-1.60;99.90
21312;DHT22;18076;52.154;10.570;2024-01-07T07:25:56;-1.60;99.90
21312;DHT22;18076;52.154;10.570;2024-01-07T07:28:21;-1.60;99.90
21312;DHT22;18076;52.154;10.570;2024-01-07T07:30:47;-1.60;99.90
21312;DHT22;18076;52.154;10.570;2024-01-07T07:33:13;-1.60;99.90
21312;DHT22;18076;52.154;10.570;2024-01-07T07:35:39;-1.60;99.90
21312;DHT22;18076;52.154;10.570;2024-01-07T07:38:06;-1.60;99.90
21312;DHT22;18076;52.154;10.570;2024-01-07T07:40:31;-1.60;99.90
21312;DHT22;18076;52.154;10.570;2024-01-07T07:42:57;-1.60;99.90
21312;DHT22;18076;52.154;10.570;2024-01-07T07:45:23;-1.60;99.90
21312;DHT22;18076;52.154;10.570;2024-01-07T07:47:48;-1.50;99.90
21312;DHT22;18076;52.154;10.570;2024-01-07T07:50:14;-1.50;99.90
21312;DHT22;18076;52.154;10.570;2024-01-07T07:52:43;-1.50;99.90
21312;DHT22;18076;52.154;10.570;2024-01-07T07:55:11;-1.50;99.90
21312;DHT22;18076;52.154;10.570;2024-01-07T07:57:36;-1.50;99.90
21312;DHT22;18076;52.154;10.570;2024-01-07T08:00:04;-1.50;99.90
21312;DHT22;18076;52.154;10.570;2024-01-07T08:02:30;-1.40;99.90
21312;DHT22;18076;52.154;10.570;2024-01-07T08:04:55;-1.40;99.90
21312;DHT22;18076;52.154;10.570;2024-01-07T08:07:21;-1.40;99.90
21312;DHT22;18076;52.154;10.570;2024-01-07T08:09:46;-1.30;99.90
21312;DHT22;18076;52.154;10.570;2024-01-07T08:12:12;-1.40;99.90
21312;DHT22;18076;52.154;10.570;2024-01-07T08:14:38;-1.30;99.90
21312;DHT22;18076;52.154;10.570;2024-01-07T08:17:06;-1.30;99.90
21312;DHT22;18076;52.154;10.570;2024-01-07T08:19:32;-1.30;99.90
21312;DHT22;18076;52.154;10.570;2024-01-07T08:21:58;-1.20;99.90
21312;DHT22;18076;52.154;10.570;2024-01-07T08:24:23;-1.20;99.90
21312;DHT22;18076;52.154;10.570;2024-01-07T08:26:49;-1.20;99.90
21312;DHT22;18076;52.154;10.570;2024-01-07T08:29:14;-1.20;99.90
21312;DHT22;18076;52.154;10.570;2024-01-07T08:31:40;-1.20;99.90
21312;DHT22;18076;52.154;10.570;2024-01-07T08:34:07;-1.20;99.90
21312;DHT22;18076;52.154;10.570;2024-01-07T08:36:33;-1.20;99.90
21312;DHT22;18076;52.154;10.570;2024-01-07T08:38:58;-1.20;99.90
21312;DHT22;18076;52.154;10.570;2024-01-07T08:41:24;-1.20;99.90
21312;DHT22;18076;52.154;10.570;2024-01-07T08:43:49;-1.20;99.90
21312;DHT22;18076;52.154;10.570;2024-01-07T08:46:15;-1.20;99.90
21312;DHT22;18076;52.154;10.570;2024-01-07T08:48:41;-1.30;99.90
21312;DHT22;18076;52.154;10.570;2024-01-07T08:51:07;-1.30;99.90
21312;DHT22;18076;52.154;10.570;2024-01-07T08:53:32;-1.30;99.90
21312;DHT22;18076;52.154;10.570;2024-01-07T08:55:58;-1.30;99.90
21312;DHT22;18076;52.154;10.570;2024-01-07T08:58:24;-1.20;99.90
21312;DHT22;18076;52.154;10.570;2024-01-07T09:00:50;-1.20;99.90
21312;DHT22;18076;52.154;10.570;2024-01-07T09:03:15;-1.20;99.90
21312;DHT22;18076;52.154;10.570;2024-01-07T09:05:40;-1.10;99.90
21312;DHT22;18076;52.154;10.570;2024-01-07T09:08:06;-1.20;99.90
21312;DHT22;18076;52.154;10.570;2024-01-07T09:10:32;-1.10;99.90
21312;DHT22;18076;52.154;10.570;2024-01-07T09:12:59;-1.10;99.90
21312;DHT22;18076;52.154;10.570;2024-01-07T09:15:25;-1.00;99.90
21312;DHT22;18076;52.154;10.570;2024-01-07T09:17:50;-1.00;99.90
21312;DHT22;18076;52.154;10.570;2024-01-07T09:20:16;-1.00;99.90
21312;DHT22;18076;52.154;10.570;2024-01-07T09:22:41;-0.90;99.90
21312;DHT22;18076;52.154;10.570;2024-01-07T09:25:09;-0.90;99.90
21312;DHT22;18076;52.154;10.570;2024-01-07T09:27:34;-0.90;99.90
21312;DHT22;18076;52.154;10.570;2024-01-07T09:30:00;-0.90;99.90
21312;DHT22;18076;52.154;10.570;2024-01-07T09:32:26;-0.90;99.90
21312;DHT22;18076;52.154;10.570;2024-01-07T09:34:52;-0.90;99.90
21312;DHT22;18076;52.154;10.570;2024-01-07T09:37:17;-0.80;99.90
21312;DHT22;18076;52.154;10.570;2024-01-07T09:39:43;-0.80;99.90
21312;DHT22;18076;52.154;10.570;2024-01-07T09:42:13;-0.80;99.90
21312;DHT22;18076;52.154;10.570;2024-01-07T09:44:39;-0.80;99.90
21312;DHT22;18076;52.154;10.570;2024-01-07T09:47:05;-0.80;99.90
21312;DHT22;18076;52.154;10.570;2024-01-07T09:49:31;-0.80;99.90
21312;DHT22;18076;52.154;10.570;2024-01-07T09:51:59;-0.80;99.90
21312;DHT22;18076;52.154;10.570;2024-01-07T09:54:25;-0.80;99.90
21312;DHT22;18076;52.154;10.570;2024-01-07T09:56:53;-0.80;99.90
21312;DHT22;18076;52.154;10.570;2024-01-07T09:59:20;-0.80;99.90
21312;DHT22;18076;52.154;10.570;2024-01-07T10:01:46;-0.80;99.90
21312;DHT22;18076;52.154;10.570;2024-01-07T10:04:12;-0.80;99.90
21312;DHT22;18076;52.154;10.570;2024-01-07T10:06:38;-0.90;99.90
21312;DHT22;18076;52.154;10.570;2024-01-07T10:09:05;-0.80;99.90
21312;DHT22;18076;52.154;10.570;2024-01-07T10:11:31;-0.90;99.90
21312;DHT22;18076;52.154;10.570;2024-01-07T10:13:57;-0.80;99.90
21312;DHT22;18076;52.154;10.570;2024-01-07T10:16:22;-0.80;99.90
21312;DHT22;18076;52.154;10.570;2024-01-07T10:18:48;-0.90;99.90
21312;DHT22;18076;52.154;10.570;2024-01-07T10:21:13;-0.90;99.90
21312;DHT22;18076;52.154;10.570;2024-01-07T10:23:39;-0.80;99.90
21312;DHT22;18076;52.154;10.570;2024-01-07T10:26:04;-0.80;99.90
21312;DHT22;18076;52.154;10.570;2024-01-07T10:28:31;-0.70;99.90
21312;DHT22;18076;52.154;10.570;2024-01-07T10:30:57;-0.80;99.90
21312;DHT22;18076;52.154;10.570;2024-01-07T10:33:22;-0.70;99.90
21312;DHT22;18076;52.154;10.570;2024-01-07T10:36:01;-0.70;99.90
21312;DHT22;18076;52.154;10.570;2024-01-07T10:38:26;-0.80;99.90
21312;DHT22;18076;52.154;10.570;2024-01-07T10:40:52;-0.80;99.90
21312;DHT22;18076;52.154;10.570;2024-01-07T10:43:19;-0.70;99.90
21312;DHT22;18076;52.154;10.570;2024-01-07T10:45:46;-0.70;99.90
21312;DHT22;18076;52.154;10.570;2024-01-07T10:48:14;-0.70;99.90
21312;DHT22;18076;52.154;10.570;2024-01-07T10:50:42;-0.60;99.90
21312;DHT22;18076;52.154;10.570;2024-01-07T10:53:09;-0.70;99.90
21312;DHT22;18076;52.154;10.570;2024-01-07T10:55:39;-0.70;99.90
21312;DHT22;18076;52.154;10.570;2024-01-07T10:58:07;-0.60;99.90
21312;DHT22;18076;52.154;10.570;2024-01-07T11:00:33;-0.70;99.90
21312;DHT22;18076;52.154;10.570;2024-01-07T11:03:04;-0.70;99.90
21312;DHT22;18076;52.154;10.570;2024-01-07T11:05:44;-0.70;99.90
21312;DHT22;18076;52.154;10.570;2024-01-07T11:11:10;-0.70;99.90
21312;DHT22;18076;52.154;10.570;2024-01-07T11:13:38;-0.60;99.90
21312;DHT22;18076;52.154;10.570;2024-01-07T11:16:04;-0.70;99.90
21312;DHT22;18076;52.154;10.570;2024-01-07T11:18:30;-0.60;99.90
21312;DHT22;18076;52.154;10.570;2024-01-07T11:21:02;-0.60;99.90
21312;DHT22;18076;52.154;10.570;2024-01-07T11:23:29;-0.60;99.90
21312;DHT22;18076;52.154;10.570;2024-01-07T11:26:04;-0.60;99.90
21312;DHT22;18076;52.154;10.570;2024-01-07T11:31:15;-0.60;99.90
21312;DHT22;18076;52.154;10.570;2024-01-07T11:33:43;-0.70;99.90
21312;DHT22;18076;52.154;10.570;2024-01-07T11:36:10;-0.70;99.90
21312;DHT22;18076;52.154;10.570;2024-01-07T11:38:36;-0.70;99.90
21312;DHT22;18076;52.154;10.570;2024-01-07T11:41:05;-0.60;99.90
21312;DHT22;18076;52.154;10.570;2024-01-07T11:43:31;-0.60;99.90
21312;DHT22;18076;52.154;10.570;2024-01-07T11:45:57;-0.60;99.90
21312;DHT22;18076;52.154;10.570;2024-01-07T11:48:23;-0.60;99.90
21312;DHT22;18076;52.154;10.570;2024-01-07T11:50:48;-0.60;99.90
21312;DHT22;18076;52.154;10.570;2024-01-07T11:53:14;-0.60;99.90
21312;DHT22;18076;52.154;10.570;2024-01-07T11:55:40;-0.50;99.90
21312;DHT22;18076;52.154;10.570;2024-01-07T11:58:05;-0.40;99.90
21312;DHT22;18076;52.154;10.570;2024-01-07T12:00:31;-0.50;99.90
21312;DHT22;18076;52.154;10.570;2024-01-07T12:02:58;-0.50;99.90
21312;DHT22;18076;52.154;10.570;2024-01-07T12:05:24;-0.40;99.90
21312;DHT22;18076;52.154;10.570;2024-01-07T12:07:49;-0.40;99.90
21312;DHT22;18076;52.154;10.570;2024-01-07T12:10:15;-0.40;99.90
21312;DHT22;18076;52.154;10.570;2024-01-07T12:12:42;-0.30;99.90
21312;DHT22;18076;52.154;10.570;2024-01-07T12:15:07;-0.30;99.90
21312;DHT22;18076;52.154;10.570;2024-01-07T12:17:33;-0.40;99.90
21312;DHT22;18076;52.154;10.570;2024-01-07T12:19:59;-0.40;99.90
21312;DHT22;18076;52.154;10.570;2024-01-07T12:22:27;-0.40;99.90
21312;DHT22;18076;52.154;10.570;2024-01-07T12:25:05;-0.40;99.90
21312;DHT22;18076;52.154;10.570;2024-01-07T12:27:31;-0.50;99.90
21312;DHT22;18076;52.154;10.570;2024-01-07T12:29:57;-0.50;99.90
21312;DHT22;18076;52.154;10.570;2024-01-07T12:32:22;-0.50;99.90
21312;DHT22;18076;52.154;10.570;2024-01-07T12:34:48;-0.40;99.90
21312;DHT22;18076;52.154;10.570;2024-01-07T12:37:14;-0.40;99.90
21312;DHT22;18076;52.154;10.570;2024-01-07T12:39:40;-0.40;99.90
21312;DHT22;18076;52.154;10.570;2024-01-07T12:42:06;-0.40;99.90
21312;DHT22;18076;52.154;10.570;2024-01-07T12:44:32;-0.50;99.90
21312;DHT22;18076;52.154;10.570;2024-01-07T12:46:58;-0.50;99.90
21312;DHT22;18076;52.154;10.570;2024-01-07T12:49:23;-0.50;99.90
21312;DHT22;18076;52.154;10.570;2024-01-07T12:51:49;-0.50;99.90
21312;DHT22;18076;52.154;10.570;2024-01-07T12:54:15;-0.40;99.90
21312;DHT22;18076;52.154;10.570;2024-01-07T12:56:41;-0.40;99.90
21312;DHT22;18076;52.154;10.570;2024-01-07T12:59:07;-0.50;99.90
21312;DHT22;18076;52.154;10.570;2024-01-07T13:01:32;-0.50;99.90
21312;DHT22;18076;52.154;10.570;2024-01-07T13:03:58;-0.50;99.90
21312;DHT22;18076;52.154;10.570;2024-01-07T13:06:24;-0.40;99.90
21312;DHT22;18076;52.154;10.570;2024-01-07T13:08:49;-0.40;99.90
21312;DHT22;18076;52.154;10.570;2024-01-07T13:11:15;-0.40;99.90
21312;DHT22;18076;52.154;10.570;2024-01-07T13:13:42;-0.40;99.90
21312;DHT22;18076;52.154;10.570;2024-01-07T13:16:07;-0.40;99.90
21312;DHT22;18076;52.154;10.570;2024-01-07T13:18:33;-0.40;99.90
21312;DHT22;18076;52.154;10.570;2024-01-07T13:20:58;-0.50;99.90
21312;DHT22;18076;52.154;10.570;2024-01-07T13:23:24;-0.40;99.90
21312;DHT22;18076;52.154;10.570;2024-01-07T13:25:49;-0.50;99.90
21312;DHT22;18076;52.154;10.570;2024-01-07T13:28:15;-0.50;99.90
21312;DHT22;18076;52.154;10.570;2024-01-07T13:30:40;-0.50;99.90
21312;DHT22;18076;52.154;10.570;2024-01-07T13:33:07;-0.50;99.90
21312;DHT22;18076;52.154;10.570;2024-01-07T13:35:33;-0.50;99.90
21312;DHT22;18076;52.154;10.570;2024-01-07T13:37:58;-0.50;99.90
21312;DHT22;18076;52.154;10.570;2024-01-07T13:40:24;-0.50;99.90
21312;DHT22;18076;52.154;10.570;2024-01-07T13:42:49;-0.50;99.90
21312;DHT22;18076;52.154;10.570;2024-01-07T13:45:17;-0.40;99.90
21312;DHT22;18076;52.154;10.570;2024-01-07T13:47:45;-0.40;99.90
21312;DHT22;18076;52.154;10.570;2024-01-07T13:50:11;-0.50;99.90
21312;DHT22;18076;52.154;10.570;2024-01-07T13:52:36;-0.50;99.90
21312;DHT22;18076;52.154;10.570;2024-01-07T13:55:02;-0.40;99.90
21312;DHT22;18076;52.154;10.570;2024-01-07T13:57:28;-0.40;99.90
21312;DHT22;18076;52.154;10.570;2024-01-07T13:59:56;-0.40;99.90
21312;DHT22;18076;52.154;10.570;2024-01-07T14:02:21;-0.40;99.90
21312;DHT22;18076;52.154;10.570;2024-01-07T14:04:47;-0.40;99.90
21312;DHT22;18076;52.154;10.570;2024-01-07T14:07:13;-0.40;99.90
21312;DHT22;18076;52.154;10.570;2024-01-07T14:09:39;-0.40;99.90
21312;DHT22;18076;52.154;10.570;2024-01-07T14:12:04;-0.40;99.90
21312;DHT22;18076;52.154;10.570;2024-01-07T14:14:30;-0.40;99.90
21312;DHT22;18076;52.154;10.570;2024-01-07T14:16:56;-0.40;99.90
21312;DHT22;18076;52.154;10.570;2024-01-07T14:19:21;-0.40;99.90
21312;DHT22;18076;52.154;10.570;2024-01-07T14:21:47;-0.30;99.90
21312;DHT22;18076;52.154;10.570;2024-01-07T14:24:13;-0.40;99.90
21312;DHT22;18076;52.154;10.570;2024-01-07T14:26:38;-0.40;99.90
21312;DHT22;18076;52.154;10.570;2024-01-07T14:29:04;-0.40;99.90
21312;DHT22;18076;52.154;10.570;2024-01-07T14:31:30;-0.40;99.90
21312;DHT22;18076;52.154;10.570;2024-01-07T14:33:55;-0.30;99.90
21312;DHT22;18076;52.154;10.570;2024-01-07T14:36:21;-0.30;99.90
21312;DHT22;18076;52.154;10.570;2024-01-07T14:38:47;-0.30;99.90
21312;DHT22;18076;52.154;10.570;2024-01-07T14:41:13;-0.30;99.90
21312;DHT22;18076;52.154;10.570;2024-01-07T14:43:39;-0.40;99.90
21312;DHT22;18076;52.154;10.570;2024-01-07T14:46:06;-0.40;99.90
21312;DHT22;18076;52.154;10.570;2024-01-07T14:48:33;-0.40;99.90
21312;DHT22;18076;52.154;10.570;2024-01-07T14:50:59;-0.40;99.90
21312;DHT22;18076;52.154;10.570;2024-01-07T14:53:24;-0.40;99.90
21312;DHT22;18076;52.154;10.570;2024-01-07T14:55:50;-0.40;99.90
21312;DHT22;18076;52.154;10.570;2024-01-07T14:58:16;-0.30;99.90
21312;DHT22;18076;52.154;10.570;2024-01-07T15:00:41;-0.40;99.90
21312;DHT22;18076;52.154;10.570;2024-01-07T15:03:07;-0.40;99.90
21312;DHT22;18076;52.154;10.570;2024-01-07T15:05:33;-0.40;99.90
21312;DHT22;18076;52.154;10.570;2024-01-07T15:08:00;-0.40;99.90
21312;DHT22;18076;52.154;10.570;2024-01-07T15:10:26;-0.40;99.90
21312;DHT22;18076;52.154;10.570;2024-01-07T15:12:51;-0.40;99.90
21312;DHT22;18076;52.154;10.570;2024-01-07T15:15:17;-0.40;99.90